createdAt,value
2023-05-08T00:01:19.853Z,102235.13
2023-05-08T00:03:46.347Z,102238.41
2023-05-08T00:06:12.834Z,102241.91
2023-05-08T00:08:39.509Z,102239.19
2023-05-08T00:11:06.061Z,102241.56
2023-05-08T00:13:32.511Z,102241.56
2023-05-08T00:15:59.246Z,102237.25
2023-05-08T00:18:26.477Z,102228.31
2023-05-08T00:20:52.999Z,102226.34
2023-05-08T00:23:22.017Z,102227.41
2023-05-08T00:25:48.422Z,102221.44
2023-05-08T00:28:14.803Z,102217.94
2023-05-08T00:30:41.208Z,102213.38
2023-05-08T00:33:07.790Z,102219.78
2023-05-08T00:35:34.426Z,102216.31
2023-05-08T00:38:01.367Z,102217.38
2023-05-08T00:40:28.041Z,102219.22
2023-05-08T00:42:54.434Z,102221.69
2023-05-08T00:45:20.918Z,102217.38
2023-05-08T00:47:47.520Z,102210.59
2023-05-08T00:50:14.271Z,102214.34
2023-05-08T00:52:41.402Z,102214.84
2023-05-08T00:55:08.369Z,102211.00
2023-05-08T00:57:37.773Z,102213.94
2023-05-08T01:00:05.508Z,102220.13
2023-05-08T01:02:32.544Z,102215.22
2023-05-08T01:04:59.993Z,102223.44
2023-05-08T01:07:27.534Z,102219.22
2023-05-08T01:09:53.995Z,102223.59
2023-05-08T01:12:40.023Z,102222.94
2023-05-08T01:15:17.458Z,102220.47
2023-05-08T01:17:59.419Z,102213.25
2023-05-08T01:20:42.179Z,102220.47
2023-05-08T01:23:24.843Z,102225.84
2023-05-08T01:26:12.851Z,102220.97
2023-05-08T01:29:16.261Z,102215.03
2023-05-08T01:32:10.943Z,102217.13
2023-05-08T01:34:44.618Z,102218.06
2023-05-08T01:37:23.828Z,102227.69
2023-05-08T01:40:10.809Z,102226.53
2023-05-08T01:42:49.229Z,102230.97
2023-05-08T01:45:39.330Z,102235.19
2023-05-08T01:48:10.789Z,102222.00
2023-05-08T01:50:46.195Z,102232.75
2023-05-08T01:53:24.432Z,102229.81
2023-05-08T01:55:55.886Z,102228.53
2023-05-08T01:58:24.837Z,102226.09
2023-05-08T02:00:52.974Z,102233.81
2023-05-08T02:03:21.636Z,102237.78
2023-05-08T02:05:50.491Z,102237.91
2023-05-08T02:08:20.902Z,102238.13
2023-05-08T02:10:50.469Z,102242.91
2023-05-08T02:13:20.161Z,102236.75
2023-05-08T02:15:52.863Z,102239.19
2023-05-08T02:18:21.602Z,102237.66
2023-05-08T02:20:51.520Z,102244.66
2023-05-08T02:23:19.971Z,102240.09
2023-05-08T02:25:47.803Z,102234.53
2023-05-08T02:28:16.501Z,102237.78
2023-05-08T02:30:44.412Z,102247.22
2023-05-08T02:33:13.323Z,102244.78
2023-05-08T02:35:43.977Z,102249.31
2023-05-08T02:38:12.576Z,102254.69
2023-05-08T02:40:45.086Z,102253.63
2023-05-08T02:43:12.068Z,102248.03
2023-05-08T02:45:48.452Z,102252.59
2023-05-08T02:48:26.190Z,102245.59
2023-05-08T02:51:03.048Z,102245.59
2023-05-08T02:53:37.608Z,102247.22
2023-05-08T02:56:16.789Z,102237.91
2023-05-08T02:58:49.013Z,102237.81
2023-05-08T03:01:30.128Z,102241.53
2023-05-08T03:04:04.320Z,102245.28
2023-05-08T03:06:37.014Z,102238.06
2023-05-08T03:09:05.944Z,102239.69
2023-05-08T03:11:40.854Z,102233.03
2023-05-08T03:14:11.186Z,102233.03
2023-05-08T03:16:41.480Z,102226.59
2023-05-08T03:19:15.054Z,102234.06
2023-05-08T03:21:44.120Z,102226.03
2023-05-08T03:24:11.359Z,102223.59
2023-05-08T03:26:38.258Z,102222.19
2023-05-08T03:29:06.059Z,102232.91
2023-05-08T03:31:34.286Z,102235.59
2023-05-08T03:34:02.375Z,102233.38
2023-05-08T03:36:30.424Z,102233.75
2023-05-08T03:38:56.986Z,102234.47
2023-05-08T03:41:25.726Z,102231.19
2023-05-08T03:43:53.355Z,102231.91
2023-05-08T03:46:20.972Z,102222.22
2023-05-08T03:48:50.327Z,102228.63
2023-05-08T03:51:17.363Z,102228.63
2023-05-08T03:53:43.945Z,102219.22
2023-05-08T03:56:10.504Z,102220.25
2023-05-08T03:58:42.801Z,102224.00
2023-05-08T04:01:25.374Z,102230.41
2023-05-08T04:04:14.828Z,102224.34
2023-05-08T04:06:55.027Z,102227.97
2023-05-08T04:09:28.921Z,102230.75
2023-05-08T04:12:20.440Z,102231.09
2023-05-08T04:14:56.557Z,102232.94
2023-05-08T04:17:39.306Z,102230.50
2023-05-08T04:20:07.403Z,102238.53
2023-05-08T04:22:35.664Z,102241.44
2023-05-08T04:25:06.599Z,102235.88
2023-05-08T04:27:33.916Z,102240.41
2023-05-08T04:30:01.422Z,102241.81
2023-05-08T04:32:29.225Z,102244.72
2023-05-08T04:34:56.372Z,102239.13
2023-05-08T04:37:24.556Z,102240.28
2023-05-08T04:39:51.508Z,102240.66
2023-05-08T04:42:18.197Z,102243.13
2023-05-08T04:44:44.676Z,102244.75
2023-05-08T04:47:11.108Z,102245.94
2023-05-08T04:49:37.486Z,102248.69
2023-05-08T04:52:04.314Z,102250.81
2023-05-08T04:54:30.797Z,102245.06
2023-05-08T04:56:57.579Z,102255.09
2023-05-08T04:59:25.021Z,102251.94
2023-05-08T05:01:51.664Z,102261.63
2023-05-08T05:04:18.423Z,102259.66
2023-05-08T05:06:44.946Z,102260.91
2023-05-08T05:09:11.789Z,102264.84
2023-05-08T05:11:38.248Z,102264.13
2023-05-08T05:14:04.750Z,102266.66
2023-05-08T05:16:31.313Z,102271.88
2023-05-08T05:18:57.821Z,102270.25
2023-05-08T05:21:24.359Z,102269.34
2023-05-08T05:23:50.823Z,102277.63
2023-05-08T05:26:17.296Z,102273.72
2023-05-08T05:28:43.753Z,102283.13
2023-05-08T05:31:10.681Z,102276.84
2023-05-08T05:33:37.166Z,102276.94
2023-05-08T05:36:03.873Z,102275.81
2023-05-08T05:38:30.307Z,102276.66
2023-05-08T05:40:56.854Z,102281.50
2023-05-08T05:43:23.267Z,102273.97
2023-05-08T05:45:49.775Z,102280.56
2023-05-08T05:48:16.558Z,102280.78
2023-05-08T05:50:43.103Z,102281.19
2023-05-08T05:53:10.033Z,102287.44
2023-05-08T05:55:36.602Z,102285.63
2023-05-08T05:58:03.307Z,102292.41
2023-05-08T06:00:31.227Z,102291.84
2023-05-08T06:02:58.018Z,102294.13
2023-05-08T06:05:24.720Z,102296.06
2023-05-08T06:07:51.340Z,102288.78
2023-05-08T06:10:18.041Z,102287.22
2023-05-08T06:12:44.525Z,102282.31
2023-05-08T06:15:11.907Z,102288.31
2023-05-08T06:17:38.787Z,102293.72
2023-05-08T06:20:06.531Z,102288.56
2023-05-08T06:22:32.974Z,102293.09
2023-05-08T06:24:59.908Z,102290.97
2023-05-08T06:27:26.445Z,102284.50
2023-05-08T06:29:53.549Z,102292.09
2023-05-08T06:32:20.882Z,102294.47
2023-05-08T06:34:48.016Z,102300.13
2023-05-08T06:37:15.952Z,102300.41
2023-05-08T06:39:42.394Z,102299.59
2023-05-08T06:42:09.155Z,102301.97
2023-05-08T06:44:36.173Z,102311.47
2023-05-08T06:47:02.734Z,102301.22
2023-05-08T06:49:29.378Z,102297.69
2023-05-08T06:51:57.833Z,102303.13
2023-05-08T06:54:24.750Z,102302.06
2023-05-08T06:56:53.117Z,102299.94
2023-05-08T06:59:20.133Z,102295.84
2023-05-08T07:01:47.081Z,102298.00
2023-05-08T07:04:14.016Z,102296.09
2023-05-08T07:06:40.966Z,102301.47
2023-05-08T07:09:07.562Z,102306.34
2023-05-08T07:11:34.074Z,102304.97
2023-05-08T07:14:00.725Z,102304.38
2023-05-08T07:16:27.270Z,102300.38
2023-05-08T07:18:53.662Z,102298.78
2023-05-08T07:21:21.303Z,102305.78
2023-05-08T07:23:50.394Z,102303.59
2023-05-08T07:26:17.697Z,102307.69
2023-05-08T07:28:44.161Z,102311.50
2023-05-08T07:31:10.633Z,102299.09
2023-05-08T07:33:37.480Z,102304.25
2023-05-08T07:36:04.055Z,102304.50
2023-05-08T07:38:30.755Z,102303.44
2023-05-08T07:40:57.844Z,102290.44
2023-05-08T07:43:24.394Z,102293.69
2023-05-08T07:45:51.237Z,102290.97
2023-05-08T07:48:17.897Z,102287.44
2023-05-08T07:50:44.757Z,102290.16
2023-05-08T07:53:11.263Z,102295.31
2023-05-08T07:55:37.687Z,102296.94
2023-05-08T07:58:04.199Z,102298.50
2023-05-08T08:00:31.402Z,102299.28
2023-05-08T08:02:58.109Z,102297.34
2023-05-08T08:05:24.686Z,102301.69
2023-05-08T08:07:51.293Z,102301.44
2023-05-08T08:10:17.780Z,102294.13
2023-05-08T08:12:44.311Z,102298.72
2023-05-08T08:15:11.019Z,102296.78
2023-05-08T08:17:37.789Z,102307.63
2023-05-08T08:20:04.952Z,102309.25
2023-05-08T08:22:31.320Z,102314.13
2023-05-08T08:24:57.722Z,102300.59
2023-05-08T08:27:24.318Z,102309.00
2023-05-08T08:29:52.601Z,102304.38
2023-05-08T08:32:25.271Z,102299.72
2023-05-08T08:34:51.962Z,102297.88
2023-05-08T08:37:18.719Z,102300.88
2023-05-08T08:39:45.339Z,102295.94
2023-05-08T08:42:12.373Z,102290.75
2023-05-08T08:44:40.045Z,102288.28
2023-05-08T08:47:10.415Z,102283.88
2023-05-08T08:49:42.974Z,102285.19
2023-05-08T08:52:25.472Z,102284.25
2023-05-08T08:54:52.706Z,102289.16
2023-05-08T08:57:20.069Z,102292.81
2023-05-08T08:59:46.874Z,102292.47
2023-05-08T09:02:17.925Z,102296.00
2023-05-08T09:04:44.762Z,102298.72
2023-05-08T09:07:12.075Z,102295.63
2023-05-08T09:09:44.620Z,102299.53
2023-05-08T09:12:12.798Z,102302.28
2023-05-08T09:14:39.306Z,102297.94
2023-05-08T09:17:05.801Z,102285.38
2023-05-08T09:19:33.851Z,102295.00
2023-05-08T09:22:01.296Z,102292.09
2023-05-08T09:24:53.363Z,102295.34
2023-05-08T09:27:25.002Z,102300.72
2023-05-08T09:30:08.531Z,102289.41
2023-05-08T09:32:37.911Z,102298.66
2023-05-08T09:35:06.519Z,102296.84
2023-05-08T09:37:33.949Z,102300.44
2023-05-08T09:40:26.428Z,102287.91
2023-05-08T09:42:52.788Z,102292.28
2023-05-08T09:45:30.263Z,102288.78
2023-05-08T09:47:57.210Z,102292.63
2023-05-08T09:50:25.116Z,102287.78
2023-05-08T09:52:51.664Z,102285.41
2023-05-08T09:55:18.759Z,102288.81
2023-05-08T09:57:58.274Z,102289.13
2023-05-08T10:00:26.536Z,102294.97
2023-05-08T10:02:59.114Z,102293.63
2023-05-08T10:05:25.777Z,102293.25
2023-05-08T10:07:52.644Z,102292.25
2023-05-08T10:10:26.899Z,102288.81
2023-05-08T10:12:55.449Z,102291.97
2023-05-08T10:15:24.765Z,102296.94
2023-05-08T10:18:02.464Z,102300.56
2023-05-08T10:20:30.864Z,102300.75
2023-05-08T10:22:58.909Z,102293.88
2023-05-08T10:25:26.305Z,102293.59
2023-05-08T10:28:05.548Z,102294.06
2023-05-08T10:30:34.176Z,102295.22
2023-05-08T10:33:03.228Z,102286.50
2023-05-08T10:35:31.583Z,102295.56
2023-05-08T10:37:59.049Z,102284.97
2023-05-08T10:40:25.682Z,102287.28
2023-05-08T10:42:52.285Z,102293.03
2023-05-08T10:45:18.906Z,102289.84
2023-05-08T10:47:52.279Z,102291.38
2023-05-08T10:50:36.818Z,102294.41
2023-05-08T10:53:15.832Z,102295.94
2023-05-08T10:55:45.965Z,102290.81
2023-05-08T10:58:29.264Z,102292.50
2023-05-08T11:01:07.367Z,102283.06
2023-05-08T11:03:45.992Z,102290.91
2023-05-08T11:06:13.137Z,102293.72
2023-05-08T11:08:51.622Z,102288.50
2023-05-08T11:11:25.203Z,102280.94
2023-05-08T11:13:56.382Z,102290.16
2023-05-08T11:16:54.019Z,102277.84
2023-05-08T11:19:25.208Z,102275.63
2023-05-08T11:22:10.690Z,102271.13
2023-05-08T11:24:38.565Z,102277.53
2023-05-08T11:27:05.051Z,102268.97
2023-05-08T11:29:31.560Z,102271.00
2023-05-08T11:31:58.289Z,102264.84
2023-05-08T11:34:54.239Z,102266.09
2023-05-08T11:37:24.023Z,102261.25
2023-05-08T11:39:50.782Z,102258.28
2023-05-08T11:42:29.148Z,102256.88
2023-05-08T11:45:14.221Z,102251.59
2023-05-08T11:47:42.843Z,102254.63
2023-05-08T11:50:11.005Z,102247.03
2023-05-08T11:52:39.443Z,102248.25
2023-05-08T11:55:11.176Z,102247.97
2023-05-08T11:57:38.041Z,102251.81
2023-05-08T12:00:06.268Z,102244.09
2023-05-08T12:02:40.863Z,102253.06
2023-05-08T12:05:09.098Z,102245.13
2023-05-08T12:07:48.996Z,102253.09
2023-05-08T12:12:44.996Z,102238.69
2023-05-08T12:15:14.084Z,102242.78
2023-05-08T12:17:41.487Z,102253.69
2023-05-08T12:20:19.160Z,102248.03
2023-05-08T12:22:53.229Z,102229.59
2023-05-08T12:25:20.161Z,102234.34
2023-05-08T12:27:47.056Z,102236.13
2023-05-08T12:30:14.700Z,102235.63
2023-05-08T12:32:42.600Z,102238.56
2023-05-08T12:35:10.925Z,102238.69
2023-05-08T12:37:37.818Z,102233.66
2023-05-08T12:40:05.593Z,102239.16
2023-05-08T12:42:45.369Z,102233.00
2023-05-08T12:45:20.996Z,102224.47
2023-05-08T12:47:51.937Z,102227.75
2023-05-08T12:50:23.112Z,102219.69
2023-05-08T12:52:51.604Z,102218.75
2023-05-08T12:55:30.256Z,102209.13
2023-05-08T12:58:01.091Z,102208.59
2023-05-08T13:00:47.291Z,102201.25
2023-05-08T13:03:28.345Z,102206.19
2023-05-08T13:05:57.004Z,102198.47
2023-05-08T13:08:37.338Z,102197.81
2023-05-08T13:11:06.441Z,102188.66
2023-05-08T13:13:34.827Z,102189.88
2023-05-08T13:16:06.623Z,102193.19
2023-05-08T13:18:36.137Z,102189.97
2023-05-08T13:21:03.781Z,102191.97
2023-05-08T13:23:30.344Z,102196.50
2023-05-08T13:25:57.009Z,102189.25
2023-05-08T13:28:23.348Z,102185.88
2023-05-08T13:30:49.818Z,102185.13
2023-05-08T13:33:16.298Z,102190.66
2023-05-08T13:35:42.908Z,102189.66
2023-05-08T13:38:09.381Z,102185.69
2023-05-08T13:40:35.956Z,102180.97
2023-05-08T13:43:02.367Z,102177.91
2023-05-08T13:45:28.885Z,102184.03
2023-05-08T13:47:55.560Z,102179.56
2023-05-08T13:50:22.128Z,102178.13
2023-05-08T13:52:49.665Z,102176.78
2023-05-08T13:55:17.621Z,102178.66
2023-05-08T13:57:44.265Z,102171.47
2023-05-08T14:00:11.436Z,102172.94
2023-05-08T14:02:38.117Z,102171.59
2023-05-08T14:05:07.180Z,102166.78
2023-05-08T14:07:33.998Z,102167.44
2023-05-08T14:10:00.622Z,102165.81
2023-05-08T14:12:27.175Z,102169.84
2023-05-08T14:14:53.604Z,102166.78
2023-05-08T14:17:20.017Z,102163.50
2023-05-08T14:19:46.564Z,102162.16
2023-05-08T14:22:12.959Z,102151.25
2023-05-08T14:24:40.029Z,102151.91
2023-05-08T14:27:06.665Z,102157.06
2023-05-08T14:29:34.158Z,102160.25
2023-05-08T14:32:00.963Z,102152.03
2023-05-08T14:34:27.509Z,102157.94
2023-05-08T14:36:54.050Z,102151.25
2023-05-08T14:39:20.721Z,102153.19
2023-05-08T14:42:05.266Z,102152.91
2023-05-08T14:44:33.807Z,102148.63
2023-05-08T14:47:00.282Z,102147.34
2023-05-08T14:49:36.636Z,102145.72
2023-05-08T14:52:04.566Z,102143.81
2023-05-08T14:54:31.626Z,102143.81
2023-05-08T14:56:58.108Z,102141.56
2023-05-08T14:59:24.581Z,102143.47
2023-05-08T15:01:51.150Z,102143.00
2023-05-08T15:04:18.078Z,102142.94
2023-05-08T15:06:44.679Z,102139.69
2023-05-08T15:09:11.212Z,102144.00
2023-05-08T15:11:37.785Z,102144.00
2023-05-08T15:14:05.064Z,102141.25
2023-05-08T15:16:31.688Z,102142.47
2023-05-08T15:18:58.188Z,102143.09
2023-05-08T15:21:26.647Z,102129.94
2023-05-08T15:23:54.931Z,102139.44
2023-05-08T15:26:22.224Z,102136.56
2023-05-08T15:28:49.091Z,102138.28
2023-05-08T15:31:15.991Z,102139.38
2023-05-08T15:33:44.949Z,102135.69
2023-05-08T15:36:12.806Z,102139.09
2023-05-08T15:38:40.868Z,102129.00
2023-05-08T15:41:12.130Z,102129.03
2023-05-08T15:43:40.911Z,102130.66
2023-05-08T15:46:07.476Z,102126.97
2023-05-08T15:48:34.163Z,102128.56
2023-05-08T15:51:00.709Z,102127.81
2023-05-08T15:53:27.140Z,102124.13
2023-05-08T15:55:54.162Z,102136.28
2023-05-08T15:58:21.126Z,102122.41
2023-05-08T16:00:48.033Z,102127.88
2023-05-08T16:03:14.868Z,102128.53
2023-05-08T16:05:41.521Z,102136.19
2023-05-08T16:08:12.212Z,102131.13
2023-05-08T16:10:39.572Z,102136.66
2023-05-08T16:13:06.266Z,102134.94
2023-05-08T16:15:32.726Z,102130.41
2023-05-08T16:17:59.432Z,102130.25
2023-05-08T16:20:26.116Z,102128.81
2023-05-08T16:22:54.861Z,102127.63
2023-05-08T16:25:21.902Z,102127.63
2023-05-08T16:27:48.374Z,102126.00
2023-05-08T16:30:15.215Z,102131.19
2023-05-08T16:32:41.818Z,102136.91
2023-05-08T16:35:08.721Z,102136.75
2023-05-08T16:37:36.178Z,102137.53
2023-05-08T16:40:04.391Z,102135.50
2023-05-08T16:42:30.945Z,102138.63
2023-05-08T16:44:57.402Z,102125.94
2023-05-08T16:47:23.918Z,102123.31
2023-05-08T16:49:50.348Z,102127.38
2023-05-08T16:52:16.840Z,102118.38
2023-05-08T16:54:43.210Z,102123.34
2023-05-08T16:57:09.619Z,102116.59
2023-05-08T16:59:36.045Z,102114.94
2023-05-08T17:02:02.512Z,102119.53
2023-05-08T17:04:30.790Z,102113.31
2023-05-08T17:06:57.560Z,102103.03
2023-05-08T17:09:25.310Z,102112.53
2023-05-08T17:11:51.806Z,102103.25
2023-05-08T17:14:18.518Z,102106.72
2023-05-08T17:16:45.292Z,102109.34
2023-05-08T17:19:11.741Z,102108.47
2023-05-08T17:21:38.184Z,102114.22
2023-05-08T17:24:04.827Z,102116.09
2023-05-08T17:26:33.936Z,102116.75
2023-05-08T17:29:00.749Z,102119.81
2023-05-08T17:31:28.662Z,102120.94
2023-05-08T17:33:55.193Z,102127.66
2023-05-08T17:36:21.941Z,102124.72
2023-05-08T17:38:50.120Z,102130.28
2023-05-08T17:41:16.671Z,102123.13
2023-05-08T17:43:43.195Z,102125.25
2023-05-08T17:46:09.861Z,102129.38
2023-05-08T17:48:36.433Z,102121.31
2023-05-08T17:51:03.199Z,102122.25
2023-05-08T17:53:30.743Z,102115.19
2023-05-08T17:55:57.891Z,102115.00
2023-05-08T17:58:25.143Z,102116.19
2023-05-08T18:00:52.580Z,102110.84
2023-05-08T18:03:19.286Z,102118.28
2023-05-08T18:05:45.769Z,102116.06
2023-05-08T18:08:12.110Z,102115.75
2023-05-08T18:10:39.370Z,102126.19
2023-05-08T18:13:06.114Z,102136.94
2023-05-08T18:15:36.066Z,102129.56
2023-05-08T18:18:02.570Z,102134.53
2023-05-08T18:20:29.182Z,102134.00
2023-05-08T18:22:55.758Z,102131.44
2023-05-08T18:25:22.295Z,102127.72
2023-05-08T18:27:50.061Z,102125.00
2023-05-08T18:30:19.340Z,102129.41
2023-05-08T18:32:45.831Z,102129.06
2023-05-08T18:35:12.313Z,102138.09
2023-05-08T18:37:38.786Z,102138.16
2023-05-08T18:40:06.325Z,102135.00
2023-05-08T18:42:32.732Z,102138.28
2023-05-08T18:45:00.600Z,102133.97
2023-05-08T18:47:27.042Z,102127.28
2023-05-08T18:49:53.721Z,102130.72
2023-05-08T18:52:20.359Z,102129.72
2023-05-08T18:54:46.761Z,102122.72
2023-05-08T18:57:13.333Z,102114.41
2023-05-08T18:59:39.750Z,102109.00
2023-05-08T19:02:06.224Z,102111.78
2023-05-08T19:04:32.672Z,102103.84
2023-05-08T19:06:59.297Z,102107.91
2023-05-08T19:09:25.890Z,102109.31
2023-05-08T19:11:52.253Z,102107.53
2023-05-08T19:14:18.742Z,102113.59
2023-05-08T19:16:45.149Z,102119.91
2023-05-08T19:19:11.586Z,102127.59
2023-05-08T19:21:37.944Z,102120.66
2023-05-08T19:24:04.579Z,102121.56
2023-05-08T19:26:31.150Z,102112.94
2023-05-08T19:28:57.601Z,102114.63
2023-05-08T19:31:24.206Z,102117.09
2023-05-08T19:33:50.739Z,102119.28
2023-05-08T19:36:18.324Z,102123.94
2023-05-08T19:38:44.768Z,102125.34
2023-05-08T19:41:11.747Z,102115.38
2023-05-08T19:43:38.288Z,102122.47
2023-05-08T19:46:04.686Z,102116.28
2023-05-08T19:48:31.229Z,102119.06
2023-05-08T19:50:57.816Z,102120.69
2023-05-08T19:53:24.346Z,102124.78
2023-05-08T19:55:50.883Z,102127.03
2023-05-08T19:58:17.811Z,102123.06
2023-05-08T20:00:50.810Z,102126.09
2023-05-08T20:03:17.895Z,102134.22
2023-05-08T20:05:44.521Z,102133.69
2023-05-08T20:08:10.968Z,102133.19
2023-05-08T20:10:37.572Z,102133.19
2023-05-08T20:13:05.531Z,102129.66
2023-05-08T20:15:32.095Z,102119.41
2023-05-08T20:17:59.572Z,102125.66
2023-05-08T20:20:27.167Z,102130.84
2023-05-08T20:22:53.624Z,102143.31
2023-05-08T20:25:20.101Z,102141.69
2023-05-08T20:27:46.480Z,102147.66
2023-05-08T20:30:13.511Z,102139.81
2023-05-08T20:32:40.230Z,102138.47
2023-05-08T20:35:07.100Z,102142.25
2023-05-08T20:37:33.469Z,102144.69
2023-05-08T20:39:59.885Z,102152.78
2023-05-08T20:42:26.265Z,102152.53
2023-05-08T20:44:52.945Z,102144.69
2023-05-08T20:47:19.339Z,102150.34
2023-05-08T20:49:45.839Z,102151.47
2023-05-08T20:52:12.268Z,102154.16
2023-05-08T20:54:38.622Z,102149.84
2023-05-08T20:57:05.083Z,102143.09
2023-05-08T20:59:31.420Z,102140.66
2023-05-08T21:01:57.822Z,102140.13
2023-05-08T21:04:24.274Z,102141.72
2023-05-08T21:06:53.998Z,102138.47
2023-05-08T21:09:20.626Z,102137.13
2023-05-08T21:11:47.198Z,102124.69
2023-05-08T21:14:13.567Z,102116.84
2023-05-08T21:16:40.003Z,102111.44
2023-05-08T21:19:06.429Z,102100.38
2023-05-08T21:21:33.471Z,102098.19
2023-05-08T21:24:00.035Z,102103.03
2023-05-08T21:26:26.503Z,102095.22
2023-05-08T21:28:53.664Z,102102.53
2023-05-08T21:31:20.368Z,102108.75
2023-05-08T21:33:46.925Z,102112.53
2023-05-08T21:36:13.368Z,102108.22
2023-05-08T21:38:39.779Z,102110.38
2023-05-08T21:41:08.000Z,102099.56
2023-05-08T21:43:38.814Z,102094.72
2023-05-08T21:46:07.113Z,102092.28
2023-05-08T21:48:34.004Z,102098.22
2023-05-08T21:51:01.438Z,102092.00
2023-05-08T21:53:28.125Z,102083.91
2023-05-08T21:55:54.678Z,102080.66
2023-05-08T21:58:21.107Z,102076.63
2023-05-08T22:00:47.572Z,102076.34
2023-05-08T22:03:14.059Z,102064.72
2023-05-08T22:05:40.655Z,102073.91
2023-05-08T22:08:07.200Z,102071.75
2023-05-08T22:10:33.605Z,102074.19
2023-05-08T22:13:01.535Z,102069.06
2023-05-08T22:15:30.251Z,102065.28
2023-05-08T22:17:57.162Z,102064.47
2023-05-08T22:20:23.806Z,102057.44
2023-05-08T22:22:50.602Z,102054.47
2023-05-08T22:25:17.159Z,102046.09
2023-05-08T22:27:43.627Z,102038.00
2023-05-08T22:30:10.372Z,102040.16
2023-05-08T22:32:36.871Z,102033.13
2023-05-08T22:35:03.538Z,102031.53
2023-05-08T22:37:30.490Z,102024.50
2023-05-08T22:39:56.996Z,102031.25
2023-05-08T22:42:24.057Z,102020.47
2023-05-08T22:44:51.054Z,102017.22
2023-05-08T22:47:17.855Z,102019.91
2023-05-08T22:49:44.487Z,102014.81
2023-05-08T22:52:10.996Z,102004.28
2023-05-08T22:54:37.409Z,101994.81
2023-05-08T22:57:04.000Z,101979.69
2023-05-08T22:59:30.496Z,101989.94
2023-05-08T23:01:57.035Z,101982.94
2023-05-08T23:04:23.464Z,101981.31
2023-05-08T23:06:49.932Z,101986.72
2023-05-08T23:09:16.476Z,101974.81
2023-05-08T23:11:42.960Z,101979.44
2023-05-08T23:14:09.494Z,101981.84
2023-05-08T23:16:36.215Z,101966.47
2023-05-08T23:19:04.432Z,101966.47
2023-05-08T23:21:32.142Z,101962.44
2023-05-08T23:23:58.947Z,101971.06
2023-05-08T23:26:26.075Z,101964.59
2023-05-08T23:28:52.528Z,101963.78
2023-05-08T23:31:19.023Z,101960.25
2023-05-08T23:33:45.465Z,101954.88
2023-05-08T23:36:12.169Z,101953.53
2023-05-08T23:38:38.718Z,101950.00
2023-05-08T23:41:05.462Z,101946.50
2023-05-08T23:43:32.097Z,101934.34
2023-05-08T23:45:58.738Z,101925.16
2023-05-08T23:48:25.905Z,101928.91
2023-05-08T23:50:52.367Z,101928.66
2023-05-08T23:53:18.961Z,101927.31
2023-05-08T23:55:45.639Z,101929.72
2023-05-08T23:58:11.989Z,101931.38
